Terminal Aerodrome Forecast
Issued by NWS New Orleans/Baton Rouge, LA

Current Version | Previous Version | Text Only | Print | Product List | Glossary On
Versions: 1 2 3 4 5 6 7 8 9 10 11 12 13 14 15 16 17 18 19 20 21 22 23 24 25 26 27 28
000
FTUS44 KLIX 180500
TAFNEW
TAF
KNEW 180520Z 1806/1906 VRB04KT P6SM FEW030 SCT250
     FM181400 08006KT P6SM SCT025
     FM181600 07008KT P6SM VCSH BKN035 PROB30 1818/1824 3SM -TSRA
      BKN028CB
     FM190200 10006KT P6SM SCT040 BKN090=

USA.gov is the U.S. government's official web portal to all federal, state and local government web resources and services.